Planet — DRLA — position and weather

sailwx.info

Track history (hours):
 
Tides and Currents Weather Stations Pressure Air Temp Water Temp Dewpoint Dewpoint Depression Visibility Wind Speed Wind Dir Waves Ship Positions

Planet

Last reported at 2018-Feb-06 11:59 UTC. Time now 2018-Feb-17 20:04 UTC.
Position N 54°22' E 009°50'.
Warning: this ship's position is 11 days out of date.

Length 73 m; draft 6.8 m.

Type: Military. MMSI: 211909000.

Date/timePositionNaut miles runAvg speedWind from/ knotsBaromVisibWave heightAir tempDewpointWater temp
2018-Feb-06 11:59N 54°22' E 009°50'4 8.0
2018-Feb-06 11:30N 54°20' E 009°44'4 7.5
2018-Feb-06 11:00N 54°17' E 009°40'4 7.3
2018-Feb-06 10:29N 54°14' E 009°36'7 7.1
2018-Feb-06 09:30N 54°10' E 009°27'2 3.7
2018-Feb-06 09:00N 54°10' E 009°24'5 7.8
2018-Feb-06 08:25N 54°06' E 009°20'3 8.1
2018-Feb-06 08:00N 54°02' E 009°18'3 6.5
2018-Feb-06 07:30N 53°59' E 009°17'7 7.3
2018-Feb-06 06:30N 53°54' E 009°09'2 1.5
2018-Feb-06 05:00N 53°53' E 009°05'510.2
2018-Feb-06 04:30N 53°51' E 008°57'5 9.9
2018-Feb-06 04:00N 53°50' E 008°49'5 9.3
2018-Feb-06 03:30N 53°53' E 008°42'510.0
2018-Feb-06 03:00N 53°57' E 008°38'5 9.8
2018-Feb-06 02:30N 53°58' E 008°30'5 9.9
2018-Feb-06 02:00N 53°59' E 008°22'5 9.5
2018-Feb-06 01:30N 53°59' E 008°13'5 9.6
2018-Feb-06 01:00N 53°59' E 008°05'5 9.6
2018-Feb-06 00:30N 53°58' E 007°57'246 9.0
2018-Feb-04 21:16N 51°36' E 002°24'411.8
2018-Feb-04 20:56N 51°33' E 002°20'1111.8
2018-Feb-04 20:00N 51°24' E 002°11'612.0
2018-Feb-04 19:30N 51°18' E 002°07'612.1
2018-Feb-04 19:00N 51°13' E 002°02'611.8
2018-Feb-04 18:31N 51°10' E 001°54'611.3
2018-Feb-04 18:00N 51°07' E 001°46'611.7
2018-Feb-04 17:30N 51°03' E 001°39'8013.3
2018-Feb-04 11:30N 50°19' W 000°05'4915.7
2018-Feb-04 08:23N 50°06' W 001°19'514.1
2018-Feb-04 08:00N 50°04' W 001°27'613.2
2018-Feb-04 07:31N 50°03' W 001°37'612.4
2018-Feb-04 07:01N 50°01' W 001°46'611.5
2018-Feb-04 06:30N 49°60' W 001°55'  
2018-Jan-31 12:58N 39°16' W 009°51'613.9
2018-Jan-31 12:30N 39°10' W 009°51'713.8
2018-Jan-31 12:00N 39°03' W 009°51'713.8
2018-Jan-31 11:30N 38°56' W 009°50'714.2
2018-Jan-31 11:00N 38°49' W 009°50'714.4
2018-Jan-31 10:30N 38°42' W 009°50'612.1
2018-Jan-31 10:00N 38°37' W 009°45'713.7
2018-Jan-31 09:30N 38°36' W 009°37'714.3
2018-Jan-31 09:00N 38°37' W 009°27'713.5
2018-Jan-31 08:30N 38°40' W 009°20'612.6
2018-Jan-31 08:00N 38°41' W 009°12'2 2.1
2018-Jan-31 07:02N 38°42' W 009°09'0 0.0
2018-Jan-31 06:56N 38°42' W 009°09'0 0.0
2018-Jan-31 06:23N 38°42' W 009°09'0 0.0
2018-Jan-31 05:53N 38°42' W 009°09'0 0.0
2018-Jan-31 05:23N 38°42' W 009°09'0 0.0
2018-Jan-31 04:59N 38°42' W 009°09'0 0.0
2018-Jan-31 04:29N 38°42' W 009°09'0 0.0
2018-Jan-31 03:59N 38°42' W 009°09'0 0.0
2018-Jan-31 03:23N 38°42' W 009°09'0 0.0
2018-Jan-31 02:53N 38°42' W 009°09'0 0.0
2018-Jan-31 02:29N 38°42' W 009°09'0 0.0
2018-Jan-31 01:59N 38°42' W 009°09'0 0.0
2018-Jan-31 01:11N 38°42' W 009°09'0 0.0
2018-Jan-31 00:47N 38°42' W 009°09'0 0.0
2018-Jan-30 22:35N 38°42' W 009°09'0 0.0
2018-Jan-30 22:05N 38°42' W 009°09'0 0.0
2018-Jan-30 20:17N 38°42' W 009°09'0 0.0
2018-Jan-30 19:53N 38°42' W 009°09'0 0.0
2018-Jan-30 19:23N 38°42' W 009°09'0 0.0
2018-Jan-30 18:02N 38°42' W 009°09'0 0.0
2018-Jan-30 17:11N 38°42' W 009°09'0 0.0
2018-Jan-30 16:41N 38°42' W 009°09'0 0.0
2018-Jan-30 16:20N 38°42' W 009°09'0 0.0
2018-Jan-30 15:23N 38°42' W 009°09'0 0.0
2018-Jan-30 14:56N 38°42' W 009°09'0 0.0
2018-Jan-30 14:17N 38°42' W 009°09'0 0.0
2018-Jan-30 13:29N 38°42' W 009°09'0 0.0
2018-Jan-30 12:59N 38°42' W 009°09'0 0.0
2018-Jan-30 12:29N 38°42' W 009°09'0 0.0
2018-Jan-30 11:56N 38°42' W 009°09'0 0.0
2018-Jan-30 11:29N 38°42' W 009°09'0 0.0
2018-Jan-30 10:26N 38°42' W 009°09'0 0.0
2018-Jan-30 09:26N 38°42' W 009°09'0 0.0
2018-Jan-30 08:59N 38°42' W 009°09'0 0.0
2018-Jan-30 08:29N 38°42' W 009°09'0 0.0
2018-Jan-30 07:44N 38°42' W 009°09'0 0.0
2018-Jan-30 07:29N 38°42' W 009°09'0 0.0
2018-Jan-30 06:56N 38°42' W 009°09'0 0.0
2018-Jan-30 06:26N 38°42' W 009°09'0 0.0
2018-Jan-30 05:56N 38°42' W 009°09'0 0.0
2018-Jan-30 05:29N 38°42' W 009°09'0 0.0
2018-Jan-30 04:59N 38°42' W 009°09'0 0.0
2018-Jan-30 04:29N 38°42' W 009°09'0 0.0
2018-Jan-30 03:53N 38°42' W 009°09'0 0.0
2018-Jan-30 03:26N 38°42' W 009°09'0 0.0
2018-Jan-30 02:59N 38°42' W 009°09'0 0.0
2018-Jan-30 02:29N 38°42' W 009°09'0 0.0
2018-Jan-30 01:59N 38°42' W 009°09'0 0.0
2018-Jan-30 01:23N 38°42' W 009°09'0 0.0
2018-Jan-30 00:56N 38°42' W 009°09'0 0.0
2018-Jan-30 00:29N 38°42' W 009°09'0 0.0
2018-Jan-29 23:59N 38°42' W 009°09'0 0.0
2018-Jan-29 23:20N 38°42' W 009°09'0 0.0
2018-Jan-29 22:59N 38°42' W 009°09'0 0.0
2018-Jan-29 22:29N 38°42' W 009°09'0 0.0
2018-Jan-29 21:59N 38°42' W 009°09'0 0.0
2018-Jan-29 21:23N 38°42' W 009°09'0 0.0
2018-Jan-29 20:59N 38°42' W 009°09'0 0.0
2018-Jan-29 20:23N 38°42' W 009°09'0 0.0
2018-Jan-29 19:56N 38°42' W 009°09'0 0.0
2018-Jan-29 19:23N 38°42' W 009°09'0 0.0
2018-Jan-29 18:53N 38°42' W 009°09'0 0.0
2018-Jan-29 18:29N 38°42' W 009°09'0 0.0
2018-Jan-29 17:53N 38°42' W 009°09'0 0.0
2018-Jan-29 17:23N 38°42' W 009°09'0 0.0
2018-Jan-29 16:53N 38°42' W 009°09'0 0.0
2018-Jan-29 15:35N 38°42' W 009°09'0 0.0
2018-Jan-29 15:23N 38°42' W 009°09'0 0.0
2018-Jan-29 14:41N 38°42' W 009°09'0 0.0
2018-Jan-29 14:11N 38°42' W 009°09'0 0.0
2018-Jan-29 13:50N 38°42' W 009°09'0 0.0
2018-Jan-29 13:26N 38°42' W 009°09'0 0.0
2018-Jan-29 12:59N 38°42' W 009°09'0 0.0
2018-Jan-29 12:14N 38°42' W 009°09'0 0.0
2018-Jan-29 11:59N 38°42' W 009°09'0 0.0
2018-Jan-29 11:08N 38°42' W 009°09'0 0.0
2018-Jan-29 10:59N 38°42' W 009°09'0 0.0
2018-Jan-29 10:29N 38°42' W 009°09'0 0.0
2018-Jan-29 10:00N 38°42' W 009°09'1 2.7
2018-Jan-29 09:30N 38°41' W 009°11'4 8.9
2018-Jan-29 09:00N 38°41' W 009°17'611.1
2018-Jan-29 08:30N 38°37' W 009°22'510.3
2018-Jan-29 08:00N 38°33' W 009°25'510.5
2018-Jan-29 07:30N 38°28' W 009°28'510.6
2018-Jan-29 07:00N 38°23' W 009°30'4 8.6
2018-Jan-29 06:30N 38°19' W 009°29'10 8.4
2018-Jan-29 05:19N 38°09' W 009°28'3 8.7
2018-Jan-29 05:00N 38°06' W 009°28'4 8.8
2018-Jan-29 04:30N 38°02' W 009°27'4 8.3
2018-Jan-29 04:00N 37°58' W 009°27'4 8.3
2018-Jan-29 03:30N 37°53' W 009°26'4 8.3
2018-Jan-29 02:59N 37°49' W 009°26'5 9.1
2018-Jan-29 02:24N 37°44' W 009°25'  
Track history (hours):
 
Tides and Currents Weather Stations Pressure Air Temp Water Temp Dewpoint Dewpoint Depression Visibility Wind Speed Wind Dir Waves Ship Positions

Planet

Last reported at 2018-Feb-06 11:59 UTC. Time now 2018-Feb-17 20:04 UTC.
Position N 54°22' E 009°50'.
Warning: this ship's position is 11 days out of date.

Length 73 m; draft 6.8 m.

Type: Military. MMSI: 211909000.

Date/timePositionNaut miles runAvg speedWind from/ knotsBaromVisibWave heightAir tempDewpointWater temp
2018-Feb-06 11:59N 54°22' E 009°50'4 8.0
2018-Feb-06 11:30N 54°20' E 009°44'4 7.5
2018-Feb-06 11:00N 54°17' E 009°40'4 7.3
2018-Feb-06 10:29N 54°14' E 009°36'7 7.1
2018-Feb-06 09:30N 54°10' E 009°27'2 3.7
2018-Feb-06 09:00N 54°10' E 009°24'5 7.8
2018-Feb-06 08:25N 54°06' E 009°20'3 8.1
2018-Feb-06 08:00N 54°02' E 009°18'3 6.5
2018-Feb-06 07:30N 53°59' E 009°17'7 7.3
2018-Feb-06 06:30N 53°54' E 009°09'2 1.5
2018-Feb-06 05:00N 53°53' E 009°05'510.2
2018-Feb-06 04:30N 53°51' E 008°57'5 9.9
2018-Feb-06 04:00N 53°50' E 008°49'5 9.3
2018-Feb-06 03:30N 53°53' E 008°42'510.0
2018-Feb-06 03:00N 53°57' E 008°38'5 9.8
2018-Feb-06 02:30N 53°58' E 008°30'5 9.9
2018-Feb-06 02:00N 53°59' E 008°22'5 9.5
2018-Feb-06 01:30N 53°59' E 008°13'5 9.6
2018-Feb-06 01:00N 53°59' E 008°05'5 9.6
2018-Feb-06 00:30N 53°58' E 007°57'246 9.0
2018-Feb-04 21:16N 51°36' E 002°24'411.8
2018-Feb-04 20:56N 51°33' E 002°20'1111.8
2018-Feb-04 20:00N 51°24' E 002°11'612.0
2018-Feb-04 19:30N 51°18' E 002°07'612.1
2018-Feb-04 19:00N 51°13' E 002°02'611.8
2018-Feb-04 18:31N 51°10' E 001°54'611.3
2018-Feb-04 18:00N 51°07' E 001°46'611.7
2018-Feb-04 17:30N 51°03' E 001°39'8013.3
2018-Feb-04 11:30N 50°19' W 000°05'4915.7
2018-Feb-04 08:23N 50°06' W 001°19'514.1
2018-Feb-04 08:00N 50°04' W 001°27'613.2
2018-Feb-04 07:31N 50°03' W 001°37'612.4
2018-Feb-04 07:01N 50°01' W 001°46'611.5
2018-Feb-04 06:30N 49°60' W 001°55'  
2018-Jan-31 12:58N 39°16' W 009°51'613.9
2018-Jan-31 12:30N 39°10' W 009°51'713.8
2018-Jan-31 12:00N 39°03' W 009°51'713.8
2018-Jan-31 11:30N 38°56' W 009°50'714.2
2018-Jan-31 11:00N 38°49' W 009°50'714.4
2018-Jan-31 10:30N 38°42' W 009°50'612.1
2018-Jan-31 10:00N 38°37' W 009°45'713.7
2018-Jan-31 09:30N 38°36' W 009°37'714.3
2018-Jan-31 09:00N 38°37' W 009°27'713.5
2018-Jan-31 08:30N 38°40' W 009°20'612.6
2018-Jan-31 08:00N 38°41' W 009°12'2 2.1
2018-Jan-31 07:02N 38°42' W 009°09'0 0.0
2018-Jan-31 06:56N 38°42' W 009°09'0 0.0
2018-Jan-31 06:23N 38°42' W 009°09'0 0.0
2018-Jan-31 05:53N 38°42' W 009°09'0 0.0
2018-Jan-31 05:23N 38°42' W 009°09'0 0.0
2018-Jan-31 04:59N 38°42' W 009°09'0 0.0
2018-Jan-31 04:29N 38°42' W 009°09'0 0.0
2018-Jan-31 03:59N 38°42' W 009°09'0 0.0
2018-Jan-31 03:23N 38°42' W 009°09'0 0.0
2018-Jan-31 02:53N 38°42' W 009°09'0 0.0
2018-Jan-31 02:29N 38°42' W 009°09'0 0.0
2018-Jan-31 01:59N 38°42' W 009°09'0 0.0
2018-Jan-31 01:11N 38°42' W 009°09'0 0.0
2018-Jan-31 00:47N 38°42' W 009°09'0 0.0
2018-Jan-30 22:35N 38°42' W 009°09'0 0.0
2018-Jan-30 22:05N 38°42' W 009°09'0 0.0
2018-Jan-30 20:17N 38°42' W 009°09'0 0.0
2018-Jan-30 19:53N 38°42' W 009°09'0 0.0
2018-Jan-30 19:23N 38°42' W 009°09'0 0.0
2018-Jan-30 18:02N 38°42' W 009°09'0 0.0
2018-Jan-30 17:11N 38°42' W 009°09'0 0.0
2018-Jan-30 16:41N 38°42' W 009°09'0 0.0
2018-Jan-30 16:20N 38°42' W 009°09'0 0.0
2018-Jan-30 15:23N 38°42' W 009°09'0 0.0
2018-Jan-30 14:56N 38°42' W 009°09'0 0.0
2018-Jan-30 14:17N 38°42' W 009°09'0 0.0
2018-Jan-30 13:29N 38°42' W 009°09'0 0.0
2018-Jan-30 12:59N 38°42' W 009°09'0 0.0
2018-Jan-30 12:29N 38°42' W 009°09'0 0.0
2018-Jan-30 11:56N 38°42' W 009°09'0 0.0
2018-Jan-30 11:29N 38°42' W 009°09'0 0.0
2018-Jan-30 10:26N 38°42' W 009°09'0 0.0
2018-Jan-30 09:26N 38°42' W 009°09'0 0.0
2018-Jan-30 08:59N 38°42' W 009°09'0 0.0
2018-Jan-30 08:29N 38°42' W 009°09'0 0.0
2018-Jan-30 07:44N 38°42' W 009°09'0 0.0
2018-Jan-30 07:29N 38°42' W 009°09'0 0.0
2018-Jan-30 06:56N 38°42' W 009°09'0 0.0
2018-Jan-30 06:26N 38°42' W 009°09'0 0.0
2018-Jan-30 05:56N 38°42' W 009°09'0 0.0
2018-Jan-30 05:29N 38°42' W 009°09'0 0.0
2018-Jan-30 04:59N 38°42' W 009°09'0 0.0
2018-Jan-30 04:29N 38°42' W 009°09'0 0.0
2018-Jan-30 03:53N 38°42' W 009°09'0 0.0
2018-Jan-30 03:26N 38°42' W 009°09'0 0.0
2018-Jan-30 02:59N 38°42' W 009°09'0 0.0
2018-Jan-30 02:29N 38°42' W 009°09'0 0.0
2018-Jan-30 01:59N 38°42' W 009°09'0 0.0
2018-Jan-30 01:23N 38°42' W 009°09'0 0.0
2018-Jan-30 00:56N 38°42' W 009°09'0 0.0
2018-Jan-30 00:29N 38°42' W 009°09'0 0.0
2018-Jan-29 23:59N 38°42' W 009°09'0 0.0
2018-Jan-29 23:20N 38°42' W 009°09'0 0.0
2018-Jan-29 22:59N 38°42' W 009°09'0 0.0
2018-Jan-29 22:29N 38°42' W 009°09'0 0.0
2018-Jan-29 21:59N 38°42' W 009°09'0 0.0
2018-Jan-29 21:23N 38°42' W 009°09'0 0.0
2018-Jan-29 20:59N 38°42' W 009°09'0 0.0
2018-Jan-29 20:23N 38°42' W 009°09'0 0.0
2018-Jan-29 19:56N 38°42' W 009°09'0 0.0
2018-Jan-29 19:23N 38°42' W 009°09'0 0.0
2018-Jan-29 18:53N 38°42' W 009°09'0 0.0
2018-Jan-29 18:29N 38°42' W 009°09'0 0.0
2018-Jan-29 17:53N 38°42' W 009°09'0 0.0
2018-Jan-29 17:23N 38°42' W 009°09'0 0.0
2018-Jan-29 16:53N 38°42' W 009°09'0 0.0
2018-Jan-29 15:35N 38°42' W 009°09'0 0.0
2018-Jan-29 15:23N 38°42' W 009°09'0 0.0
2018-Jan-29 14:41N 38°42' W 009°09'0 0.0
2018-Jan-29 14:11N 38°42' W 009°09'0 0.0
2018-Jan-29 13:50N 38°42' W 009°09'0 0.0
2018-Jan-29 13:26N 38°42' W 009°09'0 0.0
2018-Jan-29 12:59N 38°42' W 009°09'0 0.0
2018-Jan-29 12:14N 38°42' W 009°09'0 0.0
2018-Jan-29 11:59N 38°42' W 009°09'0 0.0
2018-Jan-29 11:08N 38°42' W 009°09'0 0.0
2018-Jan-29 10:59N 38°42' W 009°09'0 0.0
2018-Jan-29 10:29N 38°42' W 009°09'0 0.0
2018-Jan-29 10:00N 38°42' W 009°09'1 2.7
2018-Jan-29 09:30N 38°41' W 009°11'4 8.9
2018-Jan-29 09:00N 38°41' W 009°17'611.1
2018-Jan-29 08:30N 38°37' W 009°22'510.3
2018-Jan-29 08:00N 38°33' W 009°25'510.5
2018-Jan-29 07:30N 38°28' W 009°28'510.6
2018-Jan-29 07:00N 38°23' W 009°30'4 8.6
2018-Jan-29 06:30N 38°19' W 009°29'10 8.4
2018-Jan-29 05:19N 38°09' W 009°28'3 8.7
2018-Jan-29 05:00N 38°06' W 009°28'4 8.8
2018-Jan-29 04:30N 38°02' W 009°27'4 8.3
2018-Jan-29 04:00N 37°58' W 009°27'4 8.3
2018-Jan-29 03:30N 37°53' W 009°26'4 8.3
2018-Jan-29 02:59N 37°49' W 009°26'5 9.1
2018-Jan-29 02:24N 37°44' W 009°25'  

Dump ship's entire track history